createdAt,value
2022-10-05T00:00:27.983Z,3.00
2022-10-05T00:02:56.729Z,3.20
2022-10-05T00:05:30.397Z,2.80
2022-10-05T00:08:03.996Z,3.23
2022-10-05T00:10:31.620Z,2.80
2022-10-05T00:13:00.483Z,2.90
2022-10-05T00:15:28.125Z,2.83
2022-10-05T00:17:56.671Z,2.50
2022-10-05T00:20:25.963Z,2.63
2022-10-05T00:22:58.303Z,3.33
2022-10-05T00:25:26.373Z,3.00
2022-10-05T00:27:56.886Z,3.45
2022-10-05T00:30:28.019Z,3.13
2022-10-05T00:32:59.470Z,2.40
2022-10-05T00:35:29.208Z,3.03
2022-10-05T00:37:58.261Z,2.20
2022-10-05T00:40:36.489Z,3.17
2022-10-05T00:43:24.688Z,2.03
2022-10-05T00:46:01.161Z,2.87
2022-10-05T00:48:37.090Z,2.90
2022-10-05T00:51:28.369Z,3.33
2022-10-05T00:54:11.705Z,2.65
2022-10-05T00:57:02.168Z,2.73
2022-10-05T00:59:44.436Z,2.80
2022-10-05T01:02:16.341Z,3.17
2022-10-05T01:04:51.805Z,3.07
2022-10-05T01:07:30.562Z,2.87
2022-10-05T01:10:06.103Z,3.17
2022-10-05T01:12:40.782Z,2.30
2022-10-05T01:15:15.323Z,3.20
2022-10-05T01:17:50.617Z,2.70
2022-10-05T01:20:31.277Z,3.50
2022-10-05T01:23:19.276Z,2.90
2022-10-05T01:26:01.626Z,3.20
2022-10-05T01:28:37.671Z,3.60
2022-10-05T01:31:13.806Z,4.20
2022-10-05T01:33:47.483Z,3.13
2022-10-05T01:36:26.524Z,2.77
2022-10-05T01:39:03.479Z,2.90
2022-10-05T01:41:38.950Z,3.60
2022-10-05T01:44:12.885Z,2.80
2022-10-05T01:46:47.155Z,3.90
2022-10-05T01:49:36.742Z,3.27
2022-10-05T01:52:17.676Z,2.83
2022-10-05T01:54:58.641Z,3.03
2022-10-05T01:57:38.332Z,3.57
2022-10-05T02:00:10.280Z,3.20
2022-10-05T02:02:48.528Z,3.33
2022-10-05T02:05:22.536Z,3.67
2022-10-05T02:07:55.849Z,3.43
2022-10-05T02:10:31.380Z,3.53
2022-10-05T02:13:05.992Z,3.60
2022-10-05T02:15:41.508Z,3.50
2022-10-05T02:18:14.403Z,3.90
2022-10-05T02:20:44.745Z,3.70
2022-10-05T02:23:15.450Z,3.60
2022-10-05T02:25:47.511Z,3.97
2022-10-05T02:28:21.305Z,3.57
2022-10-05T02:30:55.722Z,3.30
2022-10-05T02:33:28.968Z,4.07
2022-10-05T02:36:02.631Z,3.93
2022-10-05T02:38:40.986Z,3.50
2022-10-05T02:41:20.147Z,4.00
2022-10-05T02:43:58.668Z,4.00
2022-10-05T02:46:36.667Z,3.70
2022-10-05T02:49:18.443Z,3.70
2022-10-05T02:51:52.024Z,4.17
2022-10-05T02:54:31.984Z,3.63
2022-10-05T02:57:03.884Z,5.50
2022-10-05T02:59:36.919Z,3.97
2022-10-05T03:02:16.500Z,3.20
2022-10-05T03:04:54.487Z,3.77
2022-10-05T03:07:28.628Z,3.73
2022-10-05T03:10:05.926Z,3.80
2022-10-05T03:12:53.711Z,4.40
2022-10-05T03:15:50.970Z,3.37
2022-10-05T03:18:32.593Z,3.07
2022-10-05T03:21:11.810Z,4.13
2022-10-05T03:23:54.164Z,3.23
2022-10-05T03:26:36.780Z,3.23
2022-10-05T03:29:14.362Z,4.10
2022-10-05T03:31:47.864Z,3.07
2022-10-05T03:34:23.720Z,3.87
2022-10-05T03:37:01.564Z,4.35
2022-10-05T03:39:36.533Z,4.67
2022-10-05T03:42:11.458Z,3.40
2022-10-05T03:44:50.239Z,4.17
2022-10-05T03:47:25.508Z,3.80
2022-10-05T03:50:10.336Z,3.80
2022-10-05T03:52:44.085Z,4.23
2022-10-05T03:55:21.753Z,4.10
2022-10-05T03:57:51.142Z,4.27
2022-10-05T04:00:23.063Z,3.60
2022-10-05T04:03:01.120Z,4.53
2022-10-05T04:05:37.755Z,3.47
2022-10-05T04:08:10.097Z,4.10
2022-10-05T04:10:46.324Z,4.13
2022-10-05T04:13:19.473Z,4.07
2022-10-05T04:15:55.197Z,3.93
2022-10-05T04:18:28.054Z,3.40
2022-10-05T04:21:02.372Z,5.43
2022-10-05T04:23:40.534Z,4.60
2022-10-05T04:26:15.226Z,4.00
2022-10-05T04:28:51.959Z,3.83
2022-10-05T04:31:42.813Z,4.50
2022-10-05T04:34:21.160Z,4.40
2022-10-05T04:37:00.034Z,3.53
2022-10-05T04:39:44.529Z,3.67
2022-10-05T04:42:18.350Z,4.00
2022-10-05T04:45:03.228Z,4.20
2022-10-05T04:47:51.095Z,3.57
2022-10-05T04:50:34.377Z,5.30
2022-10-05T04:53:21.995Z,4.53
2022-10-05T04:55:57.290Z,4.30
2022-10-05T04:58:42.279Z,4.27
2022-10-05T05:01:29.494Z,4.50
2022-10-05T05:04:13.160Z,3.87
2022-10-05T05:06:52.069Z,4.00
2022-10-05T05:09:56.809Z,4.73
2022-10-05T05:12:33.768Z,3.70
2022-10-05T05:15:25.936Z,4.20
2022-10-05T05:18:13.981Z,4.53
2022-10-05T05:20:55.270Z,3.90
2022-10-05T05:23:33.414Z,4.30
2022-10-05T05:26:15.676Z,3.90
2022-10-05T05:28:52.104Z,4.07
2022-10-05T05:31:28.854Z,4.05
2022-10-05T05:34:05.568Z,4.37
2022-10-05T05:36:43.171Z,4.27
2022-10-05T05:39:24.439Z,3.80
2022-10-05T05:42:02.173Z,4.03
2022-10-05T05:44:38.946Z,4.20
2022-10-05T05:47:17.997Z,4.10
2022-10-05T05:50:07.080Z,4.07
2022-10-05T05:52:42.651Z,4.33
2022-10-05T05:55:18.889Z,4.00
2022-10-05T05:57:55.692Z,5.37
2022-10-05T06:00:27.095Z,4.00
2022-10-05T06:03:05.729Z,4.87
2022-10-05T06:05:41.725Z,5.00
2022-10-05T06:08:19.799Z,5.27
2022-10-05T06:10:55.408Z,4.43
2022-10-05T06:13:31.225Z,6.10
2022-10-05T06:16:05.812Z,5.03
2022-10-05T06:18:34.195Z,5.65
2022-10-05T06:21:07.872Z,4.60
2022-10-05T06:23:41.024Z,5.33
2022-10-05T06:26:32.030Z,4.97
2022-10-05T06:29:04.975Z,5.83
2022-10-05T06:31:49.841Z,4.25
2022-10-05T06:34:31.860Z,5.10
2022-10-05T06:37:02.809Z,5.17
2022-10-05T06:39:57.518Z,5.40
2022-10-05T06:42:45.512Z,5.17
2022-10-05T06:45:54.565Z,5.00
2022-10-05T06:49:17.587Z,4.95
2022-10-05T06:52:15.799Z,5.03
2022-10-05T06:54:58.191Z,5.23
2022-10-05T06:57:48.564Z,5.30
2022-10-05T07:00:20.058Z,5.37
2022-10-05T07:02:58.594Z,5.10
2022-10-05T07:05:46.214Z,4.60
2022-10-05T07:08:20.326Z,6.30
2022-10-05T07:11:02.921Z,5.33
2022-10-05T07:13:51.631Z,6.10
2022-10-05T07:16:32.286Z,5.53
2022-10-05T07:19:29.844Z,5.40
2022-10-05T07:22:20.693Z,5.67
2022-10-05T07:24:53.046Z,6.23
2022-10-05T07:27:24.472Z,5.83
2022-10-05T07:30:00.283Z,5.10
2022-10-05T07:32:36.039Z,4.50
2022-10-05T07:35:32.109Z,4.70
2022-10-05T07:38:08.439Z,5.40
2022-10-05T07:40:41.598Z,5.67
2022-10-05T07:43:22.941Z,5.20
2022-10-05T07:45:56.274Z,4.63
2022-10-05T07:48:33.061Z,5.10
2022-10-05T07:51:11.198Z,5.57
2022-10-05T07:53:43.907Z,4.40
2022-10-05T07:56:20.973Z,4.33
2022-10-05T07:58:57.639Z,4.13
2022-10-05T08:01:29.625Z,4.90
2022-10-05T08:04:04.827Z,5.23
2022-10-05T08:06:49.613Z,4.97
2022-10-05T08:09:31.173Z,5.47
2022-10-05T08:12:08.454Z,5.13
2022-10-05T08:14:44.757Z,5.47
2022-10-05T08:17:25.514Z,5.80
2022-10-05T08:20:00.128Z,4.97
2022-10-05T08:22:32.665Z,5.60
2022-10-05T08:25:04.313Z,5.67
2022-10-05T08:27:43.450Z,6.03
2022-10-05T08:30:13.886Z,5.27
2022-10-05T08:32:50.295Z,6.60
2022-10-05T08:35:26.925Z,6.30
2022-10-05T08:37:56.909Z,7.00
2022-10-05T08:40:46.205Z,5.37
2022-10-05T08:43:35.654Z,6.03
2022-10-05T08:46:36.745Z,6.03
2022-10-05T08:49:39.640Z,5.50
2022-10-05T08:52:25.775Z,5.15
2022-10-05T08:55:27.963Z,6.30
2022-10-05T08:58:31.308Z,4.67
2022-10-05T09:01:07.482Z,4.70
2022-10-05T09:03:57.707Z,5.13
2022-10-05T09:06:51.596Z,5.60
2022-10-05T09:09:34.896Z,5.10
2022-10-05T09:12:28.472Z,5.20
2022-10-05T09:15:25.307Z,5.30
2022-10-05T09:18:36.156Z,4.63
2022-10-05T09:21:13.807Z,5.10
2022-10-05T09:23:43.768Z,4.47
2022-10-05T09:26:43.040Z,5.10
2022-10-05T09:29:41.179Z,4.40
2022-10-05T09:32:32.140Z,3.97
2022-10-05T09:35:09.838Z,3.50
2022-10-05T09:38:08.269Z,4.67
2022-10-05T09:41:12.178Z,4.80
2022-10-05T09:44:08.290Z,4.23
2022-10-05T09:46:56.120Z,4.30
2022-10-05T09:49:50.335Z,4.13
2022-10-05T09:52:42.586Z,5.30
2022-10-05T09:55:44.811Z,4.20
2022-10-05T09:58:53.298Z,3.88
2022-10-05T10:01:38.013Z,4.40
2022-10-05T10:04:25.725Z,4.43
2022-10-05T10:07:13.185Z,3.40
2022-10-05T10:09:59.345Z,3.70
2022-10-05T10:12:42.683Z,4.33
2022-10-05T10:16:00.583Z,3.80
2022-10-05T10:18:46.773Z,3.37
2022-10-05T10:21:35.708Z,3.97
2022-10-05T10:24:32.971Z,3.43
2022-10-05T10:27:17.352Z,3.60
2022-10-05T10:30:05.265Z,3.65
2022-10-05T10:33:13.426Z,3.13
2022-10-05T10:35:45.740Z,3.27
2022-10-05T10:38:34.977Z,4.40
2022-10-05T10:41:38.848Z,3.90
2022-10-05T10:44:38.865Z,3.77
2022-10-05T10:47:40.333Z,4.80
2022-10-05T10:50:29.083Z,4.30
2022-10-05T10:53:09.887Z,4.03
2022-10-05T10:55:51.696Z,4.13
2022-10-05T10:58:56.662Z,4.33
2022-10-05T11:01:31.868Z,4.20
2022-10-05T11:04:25.421Z,4.07
2022-10-05T11:07:32.687Z,4.57
2022-10-05T11:10:32.169Z,3.50
2022-10-05T11:13:29.811Z,4.37
2022-10-05T11:16:27.697Z,4.17
2022-10-05T11:19:16.864Z,3.90
2022-10-05T11:22:01.213Z,3.70
2022-10-05T11:24:44.709Z,3.57
2022-10-05T11:30:14.638Z,3.83
2022-10-05T11:33:21.197Z,5.80
2022-10-05T11:36:04.582Z,3.27
2022-10-05T11:39:10.207Z,3.40
2022-10-05T11:42:05.083Z,2.73
2022-10-05T11:45:07.573Z,3.87
2022-10-05T11:47:52.819Z,3.70
2022-10-05T11:50:25.571Z,2.93
2022-10-05T11:52:58.035Z,3.50
2022-10-05T11:55:30.011Z,4.27
2022-10-05T11:58:01.530Z,2.80
2022-10-05T12:00:35.293Z,2.93
2022-10-05T12:03:38.655Z,3.10
2022-10-05T12:06:38.476Z,3.10
2022-10-05T12:09:23.940Z,3.40
2022-10-05T12:12:04.352Z,3.20
2022-10-05T12:14:44.783Z,2.50
2022-10-05T12:17:21.807Z,2.63
2022-10-05T12:19:55.301Z,2.67
2022-10-05T12:22:26.030Z,3.17
2022-10-05T12:25:15.179Z,2.20
2022-10-05T12:27:46.176Z,2.60
2022-10-05T12:30:18.711Z,3.00
2022-10-05T12:33:02.030Z,3.00
2022-10-05T12:35:54.007Z,2.80
2022-10-05T12:38:28.468Z,2.97
2022-10-05T12:41:07.290Z,2.35
2022-10-05T12:43:44.698Z,2.60
2022-10-05T12:46:20.055Z,3.27
2022-10-05T12:48:57.682Z,3.03
2022-10-05T12:51:39.196Z,2.57
2022-10-05T12:54:17.617Z,3.10
2022-10-05T12:56:53.493Z,2.80
2022-10-05T12:59:35.164Z,2.67
2022-10-05T13:02:11.408Z,2.60
2022-10-05T13:04:48.057Z,2.20
2022-10-05T13:07:33.713Z,3.07
2022-10-05T13:10:13.814Z,2.50
2022-10-05T13:12:47.863Z,2.73
2022-10-05T13:15:22.239Z,3.37
2022-10-05T13:18:00.877Z,2.65
2022-10-05T13:20:35.182Z,2.50
2022-10-05T13:23:12.523Z,3.10
2022-10-05T13:25:45.683Z,2.90
2022-10-05T13:28:20.310Z,2.60
2022-10-05T13:30:58.130Z,2.37
2022-10-05T13:33:33.913Z,2.53
2022-10-05T13:36:12.021Z,2.33
2022-10-05T13:38:55.791Z,2.30
2022-10-05T13:41:34.275Z,2.92
2022-10-05T13:44:14.907Z,2.70
2022-10-05T13:46:49.415Z,2.40
2022-10-05T13:49:26.286Z,2.20
2022-10-05T13:52:01.120Z,2.10
2022-10-05T13:54:40.927Z,2.00
2022-10-05T13:57:21.111Z,2.23
2022-10-05T13:59:54.721Z,2.37
2022-10-05T14:02:28.338Z,2.00
2022-10-05T14:05:00.417Z,2.20
2022-10-05T14:07:48.924Z,1.90
2022-10-05T14:10:35.039Z,2.00
2022-10-05T14:13:17.673Z,2.27
2022-10-05T14:16:04.528Z,2.23
2022-10-05T14:18:34.468Z,2.07
2022-10-05T14:21:04.697Z,2.00
2022-10-05T14:23:32.617Z,1.80
2022-10-05T14:26:04.513Z,1.80
2022-10-05T14:28:34.959Z,2.20
2022-10-05T14:31:07.506Z,1.80
2022-10-05T14:33:38.200Z,1.90
2022-10-05T14:36:16.152Z,2.23
2022-10-05T14:38:53.760Z,2.60
2022-10-05T14:41:25.468Z,2.27
2022-10-05T14:43:56.796Z,2.03
2022-10-05T14:46:28.925Z,2.07
2022-10-05T14:49:15.674Z,2.30
2022-10-05T14:51:43.750Z,2.10
2022-10-05T14:54:27.642Z,1.67
2022-10-05T14:57:06.296Z,2.23
2022-10-05T14:59:49.308Z,1.93
2022-10-05T15:02:52.482Z,2.30
2022-10-05T15:05:31.157Z,1.70
2022-10-05T15:08:08.666Z,3.00
2022-10-05T15:10:42.770Z,2.50
2022-10-05T15:13:16.212Z,2.40
2022-10-05T15:15:50.269Z,3.33
2022-10-05T15:18:32.167Z,2.53
2022-10-05T15:21:14.250Z,2.70
2022-10-05T15:23:47.281Z,3.10
2022-10-05T15:26:27.887Z,2.50
2022-10-05T15:29:07.194Z,2.57
2022-10-05T15:31:41.303Z,2.60
2022-10-05T15:34:15.343Z,2.70
2022-10-05T15:36:50.378Z,2.93
2022-10-05T15:39:28.506Z,1.95
2022-10-05T15:42:00.517Z,2.77
2022-10-05T15:44:52.010Z,3.07
2022-10-05T15:47:24.077Z,3.30
2022-10-05T15:50:00.778Z,2.63
2022-10-05T15:52:36.882Z,2.80
2022-10-05T15:55:22.279Z,2.50
2022-10-05T15:57:57.232Z,2.10
2022-10-05T16:00:27.861Z,2.53
2022-10-05T16:03:06.008Z,2.50
2022-10-05T16:06:02.747Z,2.10
2022-10-05T16:08:58.762Z,2.33
2022-10-05T16:11:52.481Z,2.70
2022-10-05T16:14:28.962Z,2.30
2022-10-05T16:17:11.676Z,2.50
2022-10-05T16:19:47.467Z,2.23
2022-10-05T16:22:24.693Z,2.10
2022-10-05T16:25:07.106Z,2.50
2022-10-05T16:27:47.056Z,3.10
2022-10-05T16:30:18.992Z,3.27
2022-10-05T16:32:54.470Z,2.65
2022-10-05T16:35:30.131Z,3.50
2022-10-05T16:38:07.985Z,3.00
2022-10-05T16:40:42.360Z,3.30
2022-10-05T16:43:25.571Z,2.63
2022-10-05T16:46:10.219Z,3.37
2022-10-05T16:48:50.903Z,2.70
2022-10-05T16:51:29.323Z,2.63
2022-10-05T16:54:09.409Z,2.40
2022-10-05T16:56:42.263Z,3.50
2022-10-05T16:59:53.100Z,2.40
2022-10-05T17:02:36.129Z,2.77
2022-10-05T17:05:23.247Z,2.90
2022-10-05T17:08:06.112Z,2.40
2022-10-05T17:10:43.065Z,2.70
2022-10-05T17:13:24.483Z,3.40
2022-10-05T17:16:01.681Z,3.47
2022-10-05T17:19:15.138Z,3.40
2022-10-05T17:21:50.129Z,3.50
2022-10-05T17:24:30.285Z,4.00
2022-10-05T17:27:03.408Z,4.33
2022-10-05T17:29:51.308Z,3.77
2022-10-05T17:32:41.262Z,3.53
2022-10-05T17:35:42.851Z,4.27
2022-10-05T17:38:20.076Z,4.07
2022-10-05T17:41:19.692Z,4.53
2022-10-05T17:44:25.972Z,4.67
2022-10-05T17:46:56.572Z,6.93
2022-10-05T17:49:47.782Z,5.00
2022-10-05T17:52:41.217Z,5.07
2022-10-05T17:55:46.829Z,3.90
2022-10-05T17:59:00.546Z,3.60
2022-10-05T18:01:35.266Z,3.43
2022-10-05T18:04:39.532Z,3.67
2022-10-05T18:07:22.791Z,3.80
2022-10-05T18:10:16.932Z,3.60
2022-10-05T18:12:49.663Z,4.07
2022-10-05T18:15:50.119Z,4.60
2022-10-05T18:18:57.103Z,3.95
2022-10-05T18:21:32.697Z,4.63
2022-10-05T18:24:36.320Z,3.73
2022-10-05T18:27:31.746Z,4.10
2022-10-05T18:30:07.732Z,3.90
2022-10-05T18:32:55.371Z,3.87
2022-10-05T18:35:30.471Z,3.80
2022-10-05T18:38:10.136Z,4.83
2022-10-05T18:40:48.750Z,4.10
2022-10-05T18:43:28.990Z,4.00
2022-10-05T18:46:14.935Z,3.87
2022-10-05T18:48:52.375Z,4.83
2022-10-05T18:51:31.710Z,3.27
2022-10-05T18:54:13.725Z,2.93
2022-10-05T18:56:48.860Z,3.83
2022-10-05T18:59:34.144Z,4.03
2022-10-05T19:02:24.032Z,3.33
2022-10-05T19:05:04.288Z,3.07
2022-10-05T19:07:47.967Z,3.30
2022-10-05T19:10:25.332Z,3.53
2022-10-05T19:13:09.793Z,4.07
2022-10-05T19:15:44.057Z,2.90
2022-10-05T19:18:26.597Z,3.60
2022-10-05T19:21:02.297Z,3.63
2022-10-05T19:23:47.072Z,3.70
2022-10-05T19:26:17.655Z,3.43
2022-10-05T19:28:57.385Z,2.90
2022-10-05T19:31:31.506Z,2.87
2022-10-05T19:34:16.294Z,3.00
2022-10-05T19:36:55.506Z,2.80
2022-10-05T19:39:38.120Z,2.23
2022-10-05T19:42:26.283Z,2.73
2022-10-05T19:45:04.115Z,2.57
2022-10-05T19:47:47.098Z,2.27
2022-10-05T19:50:27.255Z,2.70
2022-10-05T19:53:04.141Z,2.33
2022-10-05T19:55:39.550Z,2.93
2022-10-05T19:58:19.957Z,2.87
2022-10-05T20:00:54.919Z,2.87
2022-10-05T20:03:27.781Z,2.77
2022-10-05T20:05:57.022Z,3.90
2022-10-05T20:08:26.714Z,2.97
2022-10-05T20:11:13.693Z,3.10
2022-10-05T20:13:43.344Z,2.90
2022-10-05T20:16:38.333Z,3.07
2022-10-05T20:19:49.190Z,3.47
2022-10-05T20:22:32.730Z,4.50
2022-10-05T20:25:02.693Z,4.32
2022-10-05T20:27:49.184Z,3.23
2022-10-05T20:30:19.689Z,2.80
2022-10-05T20:32:51.321Z,2.20
2022-10-05T20:35:22.022Z,2.17
2022-10-05T20:37:49.999Z,2.93
2022-10-05T20:40:19.764Z,2.87
2022-10-05T20:42:50.278Z,2.40
2022-10-05T20:45:18.273Z,2.60
2022-10-05T20:47:47.246Z,2.80
2022-10-05T20:50:15.763Z,2.40
2022-10-05T20:52:43.389Z,2.50
2022-10-05T20:55:12.813Z,2.50
2022-10-05T20:57:42.155Z,2.43
2022-10-05T21:00:13.734Z,2.20
2022-10-05T21:02:41.334Z,2.30
2022-10-05T21:05:10.018Z,2.40
2022-10-05T21:07:37.655Z,2.27
2022-10-05T21:10:06.068Z,1.63
2022-10-05T21:12:34.644Z,2.47
2022-10-05T21:15:04.565Z,2.03
2022-10-05T21:17:34.617Z,2.20
2022-10-05T21:20:02.286Z,4.80
2022-10-05T21:22:29.941Z,2.50
2022-10-05T21:24:58.348Z,2.13
2022-10-05T21:27:26.004Z,1.80
2022-10-05T21:29:53.501Z,2.00
2022-10-05T21:32:21.518Z,1.93
2022-10-05T21:34:50.711Z,2.03
2022-10-05T21:37:19.811Z,2.70
2022-10-05T21:39:47.462Z,2.47
2022-10-05T21:42:15.008Z,2.40
2022-10-05T21:44:42.683Z,2.53
2022-10-05T21:47:10.436Z,2.23
2022-10-05T21:49:38.398Z,2.00
2022-10-05T21:52:10.622Z,2.47
2022-10-05T21:55:02.341Z,2.17
2022-10-05T21:57:44.761Z,2.37
2022-10-05T22:00:14.001Z,2.00
2022-10-05T22:02:41.596Z,2.30
2022-10-05T22:05:10.005Z,1.97
2022-10-05T22:07:39.018Z,2.00
2022-10-05T22:10:07.731Z,2.20
2022-10-05T22:12:35.601Z,2.40
2022-10-05T22:15:04.797Z,2.03
2022-10-05T22:17:32.836Z,2.65
2022-10-05T22:20:00.836Z,2.30
2022-10-05T22:22:30.055Z,1.87
2022-10-05T22:24:58.934Z,1.90
2022-10-05T22:27:28.598Z,1.90
2022-10-05T22:29:59.100Z,2.17
2022-10-05T22:32:26.863Z,2.07
2022-10-05T22:34:54.417Z,1.87
2022-10-05T22:37:22.030Z,2.33
2022-10-05T22:39:49.596Z,1.83
2022-10-05T22:42:18.609Z,2.33
2022-10-05T22:44:46.389Z,2.47
2022-10-05T22:47:13.998Z,2.23
2022-10-05T22:49:41.555Z,2.20
2022-10-05T22:52:09.085Z,1.87
2022-10-05T22:54:37.456Z,3.30
2022-10-05T22:57:05.129Z,2.53
2022-10-05T22:59:34.091Z,2.37
2022-10-05T23:02:01.844Z,2.40
2022-10-05T23:04:29.951Z,1.83
2022-10-05T23:06:57.833Z,1.73
2022-10-05T23:09:25.607Z,2.10
2022-10-05T23:11:54.359Z,2.10
2022-10-05T23:14:22.209Z,2.10
2022-10-05T23:16:51.453Z,2.50
2022-10-05T23:19:19.029Z,2.20
2022-10-05T23:21:46.756Z,2.20
2022-10-05T23:24:14.419Z,2.47
2022-10-05T23:26:42.057Z,2.50
2022-10-05T23:29:09.934Z,2.10
2022-10-05T23:31:37.524Z,1.93
2022-10-05T23:34:06.409Z,2.30
2022-10-05T23:36:33.940Z,2.47
2022-10-05T23:39:01.536Z,2.30
2022-10-05T23:41:29.158Z,1.98
2022-10-05T23:43:56.705Z,2.50
2022-10-05T23:46:25.390Z,1.93
2022-10-05T23:48:53.102Z,3.00
2022-10-05T23:51:22.011Z,2.53
2022-10-05T23:53:49.606Z,2.60
2022-10-05T23:56:17.401Z,2.40
2022-10-05T23:58:44.985Z,2.20
